sensor_id;sensor_type;location;lat;lon;timestamp;P1;durP1;ratioP1;P2;durP2;ratioP2
70605;SDS011;58173;52.500;5.494;2023-04-10T00:00:34;33.17;;;18.25;;
70605;SDS011;58173;52.500;5.494;2023-04-10T00:03:03;34.88;;;17.75;;
70605;SDS011;58173;52.500;5.494;2023-04-10T00:05:31;32.70;;;17.63;;
70605;SDS011;58173;52.500;5.494;2023-04-10T00:07:58;31.52;;;17.10;;
70605;SDS011;58173;52.500;5.494;2023-04-10T00:10:26;31.90;;;16.23;;
70605;SDS011;58173;52.500;5.494;2023-04-10T00:12:55;30.05;;;16.35;;
70605;SDS011;58173;52.500;5.494;2023-04-10T00:15:22;31.42;;;17.15;;
70605;SDS011;58173;52.500;5.494;2023-04-10T00:17:49;31.08;;;16.65;;
70605;SDS011;58173;52.500;5.494;2023-04-10T00:20:20;28.15;;;15.07;;
70605;SDS011;58173;52.500;5.494;2023-04-10T00:22:48;29.70;;;15.88;;
70605;SDS011;58173;52.500;5.494;2023-04-10T00:25:15;31.85;;;17.25;;
70605;SDS011;58173;52.500;5.494;2023-04-10T00:27:42;29.48;;;15.98;;
70605;SDS011;58173;52.500;5.494;2023-04-10T00:30:10;29.48;;;15.75;;
70605;SDS011;58173;52.500;5.494;2023-04-10T00:32:37;31.77;;;16.00;;
70605;SDS011;58173;52.500;5.494;2023-04-10T00:35:05;31.08;;;15.38;;
70605;SDS011;58173;52.500;5.494;2023-04-10T00:37:33;31.30;;;17.20;;
70605;SDS011;58173;52.500;5.494;2023-04-10T00:40:01;29.38;;;16.13;;
70605;SDS011;58173;52.500;5.494;2023-04-10T00:42:28;30.30;;;16.40;;
70605;SDS011;58173;52.500;5.494;2023-04-10T00:44:55;32.13;;;16.77;;
70605;SDS011;58173;52.500;5.494;2023-04-10T00:47:22;31.48;;;16.95;;
70605;SDS011;58173;52.500;5.494;2023-04-10T00:49:49;31.25;;;16.35;;
70605;SDS011;58173;52.500;5.494;2023-04-10T00:52:16;30.75;;;16.10;;
70605;SDS011;58173;52.500;5.494;2023-04-10T00:54:44;30.05;;;16.05;;
70605;SDS011;58173;52.500;5.494;2023-04-10T00:57:11;29.77;;;15.43;;
70605;SDS011;58173;52.500;5.494;2023-04-10T00:59:39;26.35;;;14.45;;
70605;SDS011;58173;52.500;5.494;2023-04-10T01:02:07;29.42;;;15.43;;
70605;SDS011;58173;52.500;5.494;2023-04-10T01:04:35;26.20;;;13.98;;
70605;SDS011;58173;52.500;5.494;2023-04-10T01:09:36;27.27;;;14.82;;
70605;SDS011;58173;52.500;5.494;2023-04-10T01:12:14;26.80;;;14.02;;
70605;SDS011;58173;52.500;5.494;2023-04-10T01:17:27;27.50;;;14.27;;
70605;SDS011;58173;52.500;5.494;2023-04-10T01:22:45;25.88;;;13.85;;
70605;SDS011;58173;52.500;5.494;2023-04-10T01:25:29;25.10;;;13.13;;
70605;SDS011;58173;52.500;5.494;2023-04-10T01:30:38;22.88;;;12.52;;
70605;SDS011;58173;52.500;5.494;2023-04-10T01:33:07;26.88;;;13.40;;
70605;SDS011;58173;52.500;5.494;2023-04-10T01:35:35;26.20;;;13.30;;
70605;SDS011;58173;52.500;5.494;2023-04-10T01:38:04;27.40;;;12.43;;
70605;SDS011;58173;52.500;5.494;2023-04-10T01:40:32;23.80;;;12.07;;
70605;SDS011;58173;52.500;5.494;2023-04-10T01:43:00;22.73;;;12.00;;
70605;SDS011;58173;52.500;5.494;2023-04-10T01:45:39;23.83;;;12.20;;
70605;SDS011;58173;52.500;5.494;2023-04-10T01:48:08;23.17;;;11.80;;
70605;SDS011;58173;52.500;5.494;2023-04-10T01:50:36;22.42;;;11.68;;
70605;SDS011;58173;52.500;5.494;2023-04-10T01:53:04;21.58;;;11.38;;
70605;SDS011;58173;52.500;5.494;2023-04-10T01:55:32;20.63;;;10.77;;
70605;SDS011;58173;52.500;5.494;2023-04-10T01:58:03;22.13;;;11.02;;
70605;SDS011;58173;52.500;5.494;2023-04-10T02:00:36;20.92;;;10.40;;
70605;SDS011;58173;52.500;5.494;2023-04-10T02:03:03;20.30;;;10.25;;
70605;SDS011;58173;52.500;5.494;2023-04-10T02:05:32;21.20;;;10.02;;
70605;SDS011;58173;52.500;5.494;2023-04-10T02:08:08;19.45;;;10.25;;
70605;SDS011;58173;52.500;5.494;2023-04-10T02:10:46;20.45;;;10.07;;
70605;SDS011;58173;52.500;5.494;2023-04-10T02:13:18;19.48;;;9.57;;
70605;SDS011;58173;52.500;5.494;2023-04-10T02:18:15;19.48;;;9.75;;
70605;SDS011;58173;52.500;5.494;2023-04-10T02:20:43;19.38;;;9.45;;
70605;SDS011;58173;52.500;5.494;2023-04-10T02:23:11;19.42;;;9.52;;
70605;SDS011;58173;52.500;5.494;2023-04-10T02:25:38;19.40;;;9.70;;
70605;SDS011;58173;52.500;5.494;2023-04-10T02:28:06;18.45;;;9.25;;
70605;SDS011;58173;52.500;5.494;2023-04-10T02:30:33;18.13;;;8.55;;
70605;SDS011;58173;52.500;5.494;2023-04-10T02:33:01;17.30;;;8.98;;
70605;SDS011;58173;52.500;5.494;2023-04-10T02:35:29;17.55;;;9.00;;
70605;SDS011;58173;52.500;5.494;2023-04-10T02:37:57;17.27;;;8.82;;
70605;SDS011;58173;52.500;5.494;2023-04-10T02:40:24;18.95;;;9.20;;
70605;SDS011;58173;52.500;5.494;2023-04-10T02:43:17;18.52;;;9.23;;
70605;SDS011;58173;52.500;5.494;2023-04-10T02:45:45;18.65;;;8.55;;
70605;SDS011;58173;52.500;5.494;2023-04-10T02:48:19;15.63;;;8.13;;
70605;SDS011;58173;52.500;5.494;2023-04-10T02:50:57;16.95;;;8.88;;
70605;SDS011;58173;52.500;5.494;2023-04-10T02:53:26;16.50;;;8.60;;
70605;SDS011;58173;52.500;5.494;2023-04-10T02:55:57;17.80;;;8.90;;
70605;SDS011;58173;52.500;5.494;2023-04-10T02:58:26;15.50;;;8.10;;
70605;SDS011;58173;52.500;5.494;2023-04-10T03:00:54;20.67;;;8.65;;
70605;SDS011;58173;52.500;5.494;2023-04-10T03:03:34;16.70;;;7.85;;
70605;SDS011;58173;52.500;5.494;2023-04-10T03:06:01;16.33;;;8.10;;
70605;SDS011;58173;52.500;5.494;2023-04-10T03:08:31;17.02;;;8.30;;
70605;SDS011;58173;52.500;5.494;2023-04-10T03:10:58;16.00;;;7.88;;
70605;SDS011;58173;52.500;5.494;2023-04-10T03:13:26;16.38;;;7.78;;
70605;SDS011;58173;52.500;5.494;2023-04-10T03:15:54;16.52;;;8.20;;
70605;SDS011;58173;52.500;5.494;2023-04-10T03:18:21;18.17;;;8.55;;
70605;SDS011;58173;52.500;5.494;2023-04-10T03:20:51;17.60;;;7.90;;
70605;SDS011;58173;52.500;5.494;2023-04-10T03:23:19;16.25;;;7.88;;
70605;SDS011;58173;52.500;5.494;2023-04-10T03:25:50;14.85;;;7.97;;
70605;SDS011;58173;52.500;5.494;2023-04-10T03:28:24;15.68;;;7.45;;
70605;SDS011;58173;52.500;5.494;2023-04-10T03:30:51;15.05;;;7.53;;
70605;SDS011;58173;52.500;5.494;2023-04-10T03:33:18;17.23;;;7.93;;
70605;SDS011;58173;52.500;5.494;2023-04-10T03:35:45;16.65;;;8.15;;
70605;SDS011;58173;52.500;5.494;2023-04-10T03:38:13;16.85;;;7.53;;
70605;SDS011;58173;52.500;5.494;2023-04-10T03:40:40;15.07;;;7.47;;
70605;SDS011;58173;52.500;5.494;2023-04-10T03:43:09;17.55;;;8.57;;
70605;SDS011;58173;52.500;5.494;2023-04-10T03:45:36;16.13;;;7.68;;
70605;SDS011;58173;52.500;5.494;2023-04-10T03:48:04;17.23;;;7.50;;
70605;SDS011;58173;52.500;5.494;2023-04-10T03:50:39;16.05;;;7.85;;
70605;SDS011;58173;52.500;5.494;2023-04-10T03:53:06;18.23;;;7.88;;
70605;SDS011;58173;52.500;5.494;2023-04-10T03:55:34;16.10;;;7.57;;
70605;SDS011;58173;52.500;5.494;2023-04-10T03:58:02;15.60;;;7.45;;
70605;SDS011;58173;52.500;5.494;2023-04-10T04:00:30;15.60;;;7.57;;
70605;SDS011;58173;52.500;5.494;2023-04-10T04:03:06;15.70;;;7.43;;
70605;SDS011;58173;52.500;5.494;2023-04-10T04:05:52;14.68;;;6.68;;
70605;SDS011;58173;52.500;5.494;2023-04-10T04:08:22;14.13;;;6.95;;
70605;SDS011;58173;52.500;5.494;2023-04-10T04:11:16;14.95;;;6.53;;
70605;SDS011;58173;52.500;5.494;2023-04-10T04:13:52;15.98;;;7.15;;
70605;SDS011;58173;52.500;5.494;2023-04-10T04:16:37;13.90;;;6.43;;
70605;SDS011;58173;52.500;5.494;2023-04-10T04:19:31;15.00;;;7.20;;
70605;SDS011;58173;52.500;5.494;2023-04-10T04:22:06;15.63;;;6.53;;
70605;SDS011;58173;52.500;5.494;2023-04-10T04:24:59;15.52;;;6.25;;
70605;SDS011;58173;52.500;5.494;2023-04-10T04:27:45;15.13;;;6.78;;
70605;SDS011;58173;52.500;5.494;2023-04-10T04:30:35;14.90;;;7.00;;
70605;SDS011;58173;52.500;5.494;2023-04-10T04:33:16;16.50;;;7.25;;
70605;SDS011;58173;52.500;5.494;2023-04-10T04:36:08;14.55;;;6.88;;
70605;SDS011;58173;52.500;5.494;2023-04-10T04:38:41;13.60;;;6.07;;
70605;SDS011;58173;52.500;5.494;2023-04-10T04:41:29;16.10;;;7.38;;
70605;SDS011;58173;52.500;5.494;2023-04-10T04:44:12;15.18;;;7.05;;
70605;SDS011;58173;52.500;5.494;2023-04-10T04:46:58;14.05;;;6.35;;
70605;SDS011;58173;52.500;5.494;2023-04-10T04:49:51;15.75;;;6.88;;
70605;SDS011;58173;52.500;5.494;2023-04-10T04:52:47;14.80;;;6.80;;
70605;SDS011;58173;52.500;5.494;2023-04-10T04:55:30;14.23;;;6.75;;
70605;SDS011;58173;52.500;5.494;2023-04-10T04:58:02;14.63;;;6.93;;
70605;SDS011;58173;52.500;5.494;2023-04-10T05:00:52;13.20;;;6.00;;
70605;SDS011;58173;52.500;5.494;2023-04-10T05:03:39;14.50;;;6.35;;
70605;SDS011;58173;52.500;5.494;2023-04-10T05:06:33;14.68;;;6.53;;
70605;SDS011;58173;52.500;5.494;2023-04-10T05:09:10;13.50;;;6.15;;
70605;SDS011;58173;52.500;5.494;2023-04-10T05:12:07;13.73;;;6.65;;
70605;SDS011;58173;52.500;5.494;2023-04-10T05:15:09;14.50;;;7.07;;
70605;SDS011;58173;52.500;5.494;2023-04-10T05:18:02;15.18;;;7.00;;
70605;SDS011;58173;52.500;5.494;2023-04-10T05:20:53;15.18;;;6.60;;
70605;SDS011;58173;52.500;5.494;2023-04-10T05:23:53;12.77;;;6.03;;
70605;SDS011;58173;52.500;5.494;2023-04-10T05:26:35;12.13;;;5.57;;
70605;SDS011;58173;52.500;5.494;2023-04-10T05:29:24;14.02;;;6.07;;
70605;SDS011;58173;52.500;5.494;2023-04-10T05:32:13;13.43;;;6.43;;
70605;SDS011;58173;52.500;5.494;2023-04-10T05:34:59;13.75;;;6.30;;
70605;SDS011;58173;52.500;5.494;2023-04-10T05:37:38;14.25;;;6.30;;
70605;SDS011;58173;52.500;5.494;2023-04-10T05:40:24;13.25;;;6.53;;
70605;SDS011;58173;52.500;5.494;2023-04-10T05:43:20;11.43;;;5.50;;
70605;SDS011;58173;52.500;5.494;2023-04-10T05:46:00;14.77;;;6.30;;
70605;SDS011;58173;52.500;5.494;2023-04-10T05:49:05;14.15;;;6.45;;
70605;SDS011;58173;52.500;5.494;2023-04-10T05:51:51;10.45;;;4.97;;
70605;SDS011;58173;52.500;5.494;2023-04-10T05:54:37;12.80;;;6.22;;
70605;SDS011;58173;52.500;5.494;2023-04-10T05:57:30;13.57;;;5.95;;
70605;SDS011;58173;52.500;5.494;2023-04-10T06:00:20;9.75;;;4.80;;
70605;SDS011;58173;52.500;5.494;2023-04-10T06:03:17;11.52;;;5.22;;
70605;SDS011;58173;52.500;5.494;2023-04-10T06:05:53;13.32;;;6.30;;
70605;SDS011;58173;52.500;5.494;2023-04-10T06:08:20;11.43;;;5.18;;
70605;SDS011;58173;52.500;5.494;2023-04-10T06:10:48;11.80;;;5.88;;
70605;SDS011;58173;52.500;5.494;2023-04-10T06:13:15;12.60;;;5.40;;
70605;SDS011;58173;52.500;5.494;2023-04-10T06:15:42;11.50;;;5.65;;
70605;SDS011;58173;52.500;5.494;2023-04-10T06:18:10;11.93;;;5.68;;
70605;SDS011;58173;52.500;5.494;2023-04-10T06:20:37;11.43;;;5.10;;
70605;SDS011;58173;52.500;5.494;2023-04-10T06:23:04;11.88;;;5.38;;
70605;SDS011;58173;52.500;5.494;2023-04-10T06:25:32;11.38;;;5.07;;
70605;SDS011;58173;52.500;5.494;2023-04-10T06:27:59;11.52;;;5.32;;
70605;SDS011;58173;52.500;5.494;2023-04-10T06:30:26;9.75;;;4.40;;
70605;SDS011;58173;52.500;5.494;2023-04-10T06:32:54;13.45;;;5.72;;
70605;SDS011;58173;52.500;5.494;2023-04-10T06:35:21;11.73;;;5.28;;
70605;SDS011;58173;52.500;5.494;2023-04-10T06:37:48;11.82;;;5.63;;
70605;SDS011;58173;52.500;5.494;2023-04-10T06:40:16;12.95;;;6.35;;
70605;SDS011;58173;52.500;5.494;2023-04-10T06:42:43;12.18;;;5.90;;
70605;SDS011;58173;52.500;5.494;2023-04-10T06:45:14;10.13;;;4.95;;
70605;SDS011;58173;52.500;5.494;2023-04-10T06:47:41;10.57;;;4.97;;
70605;SDS011;58173;52.500;5.494;2023-04-10T06:50:08;12.05;;;5.70;;
70605;SDS011;58173;52.500;5.494;2023-04-10T06:52:36;11.68;;;5.72;;
70605;SDS011;58173;52.500;5.494;2023-04-10T06:55:03;12.23;;;4.95;;
70605;SDS011;58173;52.500;5.494;2023-04-10T06:57:31;11.23;;;5.43;;
70605;SDS011;58173;52.500;5.494;2023-04-10T06:59:58;11.32;;;4.95;;
70605;SDS011;58173;52.500;5.494;2023-04-10T07:02:25;12.15;;;5.10;;
70605;SDS011;58173;52.500;5.494;2023-04-10T07:04:52;11.73;;;6.03;;
70605;SDS011;58173;52.500;5.494;2023-04-10T07:07:19;11.48;;;5.28;;
70605;SDS011;58173;52.500;5.494;2023-04-10T07:09:47;10.32;;;5.05;;
70605;SDS011;58173;52.500;5.494;2023-04-10T07:12:14;10.13;;;4.70;;
70605;SDS011;58173;52.500;5.494;2023-04-10T07:14:41;8.60;;;4.20;;
70605;SDS011;58173;52.500;5.494;2023-04-10T07:17:08;11.40;;;5.18;;
70605;SDS011;58173;52.500;5.494;2023-04-10T07:19:35;11.93;;;5.68;;
70605;SDS011;58173;52.500;5.494;2023-04-10T07:22:03;9.10;;;3.97;;
70605;SDS011;58173;52.500;5.494;2023-04-10T07:24:30;9.80;;;4.55;;
70605;SDS011;58173;52.500;5.494;2023-04-10T07:26:58;11.73;;;5.60;;
70605;SDS011;58173;52.500;5.494;2023-04-10T07:29:26;11.05;;;5.72;;
70605;SDS011;58173;52.500;5.494;2023-04-10T07:31:53;13.02;;;6.57;;
70605;SDS011;58173;52.500;5.494;2023-04-10T07:34:22;9.68;;;4.70;;
70605;SDS011;58173;52.500;5.494;2023-04-10T07:36:49;9.20;;;4.28;;
70605;SDS011;58173;52.500;5.494;2023-04-10T07:39:16;9.95;;;4.68;;
70605;SDS011;58173;52.500;5.494;2023-04-10T07:41:43;14.13;;;5.60;;
70605;SDS011;58173;52.500;5.494;2023-04-10T07:44:11;11.00;;;5.05;;
70605;SDS011;58173;52.500;5.494;2023-04-10T07:46:38;12.35;;;6.05;;
70605;SDS011;58173;52.500;5.494;2023-04-10T07:49:05;12.85;;;6.10;;
70605;SDS011;58173;52.500;5.494;2023-04-10T07:51:34;10.30;;;4.63;;
70605;SDS011;58173;52.500;5.494;2023-04-10T07:54:04;9.50;;;4.20;;
70605;SDS011;58173;52.500;5.494;2023-04-10T07:56:31;12.90;;;6.70;;
70605;SDS011;58173;52.500;5.494;2023-04-10T07:58:59;9.68;;;4.32;;
70605;SDS011;58173;52.500;5.494;2023-04-10T08:01:26;8.68;;;4.30;;
70605;SDS011;58173;52.500;5.494;2023-04-10T08:03:56;8.30;;;4.00;;
70605;SDS011;58173;52.500;5.494;2023-04-10T08:06:24;9.27;;;4.18;;
70605;SDS011;58173;52.500;5.494;2023-04-10T08:08:51;12.25;;;5.50;;
70605;SDS011;58173;52.500;5.494;2023-04-10T08:13:50;15.93;;;6.43;;
70605;SDS011;58173;52.500;5.494;2023-04-10T08:16:19;8.95;;;4.38;;
70605;SDS011;58173;52.500;5.494;2023-04-10T08:18:46;8.88;;;3.80;;
70605;SDS011;58173;52.500;5.494;2023-04-10T08:21:13;10.95;;;5.60;;
70605;SDS011;58173;52.500;5.494;2023-04-10T08:23:40;9.00;;;4.05;;
70605;SDS011;58173;52.500;5.494;2023-04-10T08:26:08;11.10;;;5.40;;
70605;SDS011;58173;52.500;5.494;2023-04-10T08:28:35;8.95;;;3.95;;
70605;SDS011;58173;52.500;5.494;2023-04-10T08:31:03;10.95;;;5.38;;
70605;SDS011;58173;52.500;5.494;2023-04-10T08:33:30;8.70;;;4.57;;
70605;SDS011;58173;52.500;5.494;2023-04-10T08:35:57;10.30;;;5.15;;
70605;SDS011;58173;52.500;5.494;2023-04-10T08:38:24;11.82;;;5.82;;
70605;SDS011;58173;52.500;5.494;2023-04-10T08:40:52;11.52;;;5.13;;
70605;SDS011;58173;52.500;5.494;2023-04-10T08:43:20;9.88;;;4.65;;
70605;SDS011;58173;52.500;5.494;2023-04-10T08:45:47;11.25;;;5.65;;
70605;SDS011;58173;52.500;5.494;2023-04-10T08:48:14;9.68;;;3.85;;
70605;SDS011;58173;52.500;5.494;2023-04-10T08:50:42;11.25;;;5.35;;
70605;SDS011;58173;52.500;5.494;2023-04-10T08:53:12;8.38;;;4.00;;
70605;SDS011;58173;52.500;5.494;2023-04-10T08:55:39;8.98;;;4.43;;
70605;SDS011;58173;52.500;5.494;2023-04-10T08:58:07;9.85;;;4.55;;
70605;SDS011;58173;52.500;5.494;2023-04-10T09:00:35;11.50;;;5.43;;
70605;SDS011;58173;52.500;5.494;2023-04-10T09:03:04;11.57;;;5.45;;
70605;SDS011;58173;52.500;5.494;2023-04-10T09:05:34;8.93;;;4.50;;
70605;SDS011;58173;52.500;5.494;2023-04-10T09:08:02;10.48;;;4.65;;
70605;SDS011;58173;52.500;5.494;2023-04-10T09:10:30;11.32;;;5.43;;
70605;SDS011;58173;52.500;5.494;2023-04-10T09:12:57;12.05;;;6.18;;
70605;SDS011;58173;52.500;5.494;2023-04-10T09:15:24;10.93;;;4.78;;
70605;SDS011;58173;52.500;5.494;2023-04-10T09:17:58;11.73;;;6.15;;
70605;SDS011;58173;52.500;5.494;2023-04-10T09:20:27;11.00;;;5.28;;
70605;SDS011;58173;52.500;5.494;2023-04-10T09:22:55;9.52;;;4.50;;
70605;SDS011;58173;52.500;5.494;2023-04-10T09:25:29;12.32;;;5.88;;
70605;SDS011;58173;52.500;5.494;2023-04-10T09:28:07;9.35;;;4.63;;
70605;SDS011;58173;52.500;5.494;2023-04-10T09:30:41;13.30;;;7.25;;
70605;SDS011;58173;52.500;5.494;2023-04-10T09:33:24;8.38;;;4.05;;
70605;SDS011;58173;52.500;5.494;2023-04-10T09:35:56;8.48;;;4.05;;
70605;SDS011;58173;52.500;5.494;2023-04-10T09:38:25;14.00;;;6.07;;
70605;SDS011;58173;52.500;5.494;2023-04-10T09:40:52;11.38;;;5.13;;
70605;SDS011;58173;52.500;5.494;2023-04-10T09:43:31;9.90;;;4.68;;
70605;SDS011;58173;52.500;5.494;2023-04-10T09:45:58;10.77;;;5.13;;
70605;SDS011;58173;52.500;5.494;2023-04-10T09:48:26;9.77;;;4.57;;
70605;SDS011;58173;52.500;5.494;2023-04-10T09:50:53;10.38;;;5.30;;
70605;SDS011;58173;52.500;5.494;2023-04-10T09:53:20;9.05;;;4.40;;
70605;SDS011;58173;52.500;5.494;2023-04-10T09:55:48;9.73;;;3.83;;
70605;SDS011;58173;52.500;5.494;2023-04-10T09:58:16;10.10;;;5.05;;
70605;SDS011;58173;52.500;5.494;2023-04-10T10:00:45;12.23;;;6.43;;
70605;SDS011;58173;52.500;5.494;2023-04-10T10:03:13;8.95;;;3.92;;
70605;SDS011;58173;52.500;5.494;2023-04-10T10:05:42;8.60;;;4.20;;
70605;SDS011;58173;52.500;5.494;2023-04-10T10:08:10;9.52;;;5.00;;
70605;SDS011;58173;52.500;5.494;2023-04-10T10:10:48;8.98;;;3.95;;
70605;SDS011;58173;52.500;5.494;2023-04-10T10:14:02;11.27;;;5.30;;
70605;SDS011;58173;52.500;5.494;2023-04-10T10:16:12;8.70;;;3.95;;
70605;SDS011;58173;52.500;5.494;2023-04-10T10:18:46;10.90;;;5.28;;
70605;SDS011;58173;52.500;5.494;2023-04-10T10:21:18;10.32;;;4.70;;
70605;SDS011;58173;52.500;5.494;2023-04-10T10:23:47;10.18;;;4.90;;
70605;SDS011;58173;52.500;5.494;2023-04-10T10:26:19;14.00;;;6.35;;
70605;SDS011;58173;52.500;5.494;2023-04-10T10:28:50;10.52;;;5.25;;
70605;SDS011;58173;52.500;5.494;2023-04-10T10:31:20;11.20;;;5.50;;
70605;SDS011;58173;52.500;5.494;2023-04-10T10:33:52;10.95;;;5.78;;
70605;SDS011;58173;52.500;5.494;2023-04-10T10:36:19;10.00;;;4.57;;
70605;SDS011;58173;52.500;5.494;2023-04-10T10:47:21;9.00;;;4.28;;
70605;SDS011;58173;52.500;5.494;2023-04-10T10:58:07;10.68;;;5.40;;
70605;SDS011;58173;52.500;5.494;2023-04-10T11:08:16;9.90;;;4.68;;
70605;SDS011;58173;52.500;5.494;2023-04-10T11:10:59;9.85;;;4.65;;
70605;SDS011;58173;52.500;5.494;2023-04-10T11:13:31;10.43;;;5.40;;
70605;SDS011;58173;52.500;5.494;2023-04-10T11:15:58;10.65;;;5.40;;
70605;SDS011;58173;52.500;5.494;2023-04-10T11:21:31;12.95;;;5.65;;
70605;SDS011;58173;52.500;5.494;2023-04-10T11:31:44;11.73;;;5.38;;
70605;SDS011;58173;52.500;5.494;2023-04-10T11:34:12;10.65;;;4.85;;
70605;SDS011;58173;52.500;5.494;2023-04-10T11:36:41;10.18;;;4.78;;
70605;SDS011;58173;52.500;5.494;2023-04-10T11:39:10;9.23;;;4.72;;
70605;SDS011;58173;52.500;5.494;2023-04-10T11:41:39;10.23;;;5.03;;
70605;SDS011;58173;52.500;5.494;2023-04-10T11:44:07;9.85;;;4.60;;
70605;SDS011;58173;52.500;5.494;2023-04-10T11:46:42;13.52;;;4.20;;
70605;SDS011;58173;52.500;5.494;2023-04-10T11:49:16;10.50;;;4.78;;
70605;SDS011;58173;52.500;5.494;2023-04-10T11:51:44;10.63;;;4.47;;
70605;SDS011;58173;52.500;5.494;2023-04-10T11:54:12;9.52;;;4.57;;
70605;SDS011;58173;52.500;5.494;2023-04-10T11:56:40;9.60;;;4.88;;
70605;SDS011;58173;52.500;5.494;2023-04-10T11:59:08;10.05;;;5.07;;
70605;SDS011;58173;52.500;5.494;2023-04-10T12:01:38;12.02;;;4.65;;
70605;SDS011;58173;52.500;5.494;2023-04-10T12:04:14;9.52;;;4.60;;
70605;SDS011;58173;52.500;5.494;2023-04-10T12:06:54;9.00;;;4.45;;
70605;SDS011;58173;52.500;5.494;2023-04-10T12:09:22;9.93;;;5.05;;
70605;SDS011;58173;52.500;5.494;2023-04-10T12:14:31;10.02;;;4.85;;
70605;SDS011;58173;52.500;5.494;2023-04-10T12:16:59;8.75;;;4.43;;
70605;SDS011;58173;52.500;5.494;2023-04-10T12:19:27;10.30;;;4.88;;
70605;SDS011;58173;52.500;5.494;2023-04-10T12:21:54;10.15;;;4.78;;
70605;SDS011;58173;52.500;5.494;2023-04-10T12:27:17;10.15;;;5.38;;
70605;SDS011;58173;52.500;5.494;2023-04-10T12:29:45;9.02;;;4.20;;
70605;SDS011;58173;52.500;5.494;2023-04-10T12:32:13;10.60;;;4.57;;
70605;SDS011;58173;52.500;5.494;2023-04-10T12:34:40;9.98;;;4.10;;
70605;SDS011;58173;52.500;5.494;2023-04-10T12:37:07;11.05;;;4.15;;
70605;SDS011;58173;52.500;5.494;2023-04-10T12:39:37;12.27;;;5.18;;
70605;SDS011;58173;52.500;5.494;2023-04-10T12:47:17;10.68;;;4.25;;
70605;SDS011;58173;52.500;5.494;2023-04-10T12:52:35;9.60;;;3.78;;
70605;SDS011;58173;52.500;5.494;2023-04-10T12:55:21;9.77;;;4.22;;
70605;SDS011;58173;52.500;5.494;2023-04-10T12:57:48;8.85;;;3.85;;
70605;SDS011;58173;52.500;5.494;2023-04-10T13:00:17;9.15;;;4.80;;
70605;SDS011;58173;52.500;5.494;2023-04-10T13:02:45;9.00;;;4.15;;
70605;SDS011;58173;52.500;5.494;2023-04-10T13:05:13;9.50;;;4.22;;
70605;SDS011;58173;52.500;5.494;2023-04-10T13:07:40;11.15;;;4.78;;
70605;SDS011;58173;52.500;5.494;2023-04-10T13:10:08;9.00;;;3.72;;
70605;SDS011;58173;52.500;5.494;2023-04-10T13:12:35;10.13;;;5.55;;
70605;SDS011;58173;52.500;5.494;2023-04-10T13:15:04;8.57;;;4.53;;
70605;SDS011;58173;52.500;5.494;2023-04-10T13:17:33;11.75;;;4.95;;
70605;SDS011;58173;52.500;5.494;2023-04-10T13:20:00;10.25;;;5.25;;
70605;SDS011;58173;52.500;5.494;2023-04-10T13:22:27;8.50;;;4.28;;
70605;SDS011;58173;52.500;5.494;2023-04-10T13:24:55;9.85;;;3.80;;
70605;SDS011;58173;52.500;5.494;2023-04-10T13:27:22;10.25;;;4.53;;
70605;SDS011;58173;52.500;5.494;2023-04-10T13:29:49;10.95;;;4.38;;
70605;SDS011;58173;52.500;5.494;2023-04-10T13:32:16;9.68;;;3.97;;
70605;SDS011;58173;52.500;5.494;2023-04-10T13:34:43;8.82;;;3.97;;
70605;SDS011;58173;52.500;5.494;2023-04-10T13:37:10;7.53;;;3.80;;
70605;SDS011;58173;52.500;5.494;2023-04-10T13:39:38;8.27;;;4.18;;
70605;SDS011;58173;52.500;5.494;2023-04-10T13:42:05;7.90;;;3.58;;
70605;SDS011;58173;52.500;5.494;2023-04-10T13:44:32;8.50;;;3.78;;
70605;SDS011;58173;52.500;5.494;2023-04-10T13:47:00;8.23;;;3.97;;
70605;SDS011;58173;52.500;5.494;2023-04-10T13:49:27;7.63;;;3.80;;
70605;SDS011;58173;52.500;5.494;2023-04-10T13:51:55;10.27;;;3.60;;
70605;SDS011;58173;52.500;5.494;2023-04-10T13:54:23;7.63;;;3.72;;
70605;SDS011;58173;52.500;5.494;2023-04-10T13:56:50;13.70;;;3.95;;
70605;SDS011;58173;52.500;5.494;2023-04-10T13:59:19;9.32;;;3.72;;
70605;SDS011;58173;52.500;5.494;2023-04-10T14:01:46;7.70;;;3.38;;
70605;SDS011;58173;52.500;5.494;2023-04-10T14:04:17;7.88;;;3.60;;
70605;SDS011;58173;52.500;5.494;2023-04-10T14:06:44;7.72;;;3.92;;
70605;SDS011;58173;52.500;5.494;2023-04-10T14:09:11;7.57;;;3.38;;
70605;SDS011;58173;52.500;5.494;2023-04-10T14:11:39;6.80;;;3.40;;
70605;SDS011;58173;52.500;5.494;2023-04-10T14:14:06;6.80;;;3.22;;
70605;SDS011;58173;52.500;5.494;2023-04-10T14:16:33;6.18;;;3.05;;
70605;SDS011;58173;52.500;5.494;2023-04-10T14:19:00;8.13;;;3.45;;
70605;SDS011;58173;52.500;5.494;2023-04-10T14:21:28;9.55;;;3.45;;
70605;SDS011;58173;52.500;5.494;2023-04-10T14:23:55;6.93;;;3.38;;
70605;SDS011;58173;52.500;5.494;2023-04-10T14:26:22;7.43;;;3.42;;
70605;SDS011;58173;52.500;5.494;2023-04-10T14:28:49;8.50;;;3.35;;
70605;SDS011;58173;52.500;5.494;2023-04-10T14:31:17;7.15;;;3.13;;
70605;SDS011;58173;52.500;5.494;2023-04-10T14:33:45;6.85;;;3.03;;
70605;SDS011;58173;52.500;5.494;2023-04-10T14:36:12;6.90;;;3.20;;
70605;SDS011;58173;52.500;5.494;2023-04-10T14:38:39;7.95;;;3.30;;
70605;SDS011;58173;52.500;5.494;2023-04-10T14:41:06;7.72;;;3.33;;
70605;SDS011;58173;52.500;5.494;2023-04-10T14:43:33;6.82;;;3.17;;
70605;SDS011;58173;52.500;5.494;2023-04-10T14:46:00;7.55;;;3.22;;
70605;SDS011;58173;52.500;5.494;2023-04-10T14:48:27;7.80;;;3.67;;
70605;SDS011;58173;52.500;5.494;2023-04-10T14:50:55;7.03;;;3.53;;
70605;SDS011;58173;52.500;5.494;2023-04-10T14:53:24;7.35;;;3.45;;
70605;SDS011;58173;52.500;5.494;2023-04-10T14:55:51;7.97;;;3.55;;
70605;SDS011;58173;52.500;5.494;2023-04-10T14:58:18;7.80;;;3.90;;
70605;SDS011;58173;52.500;5.494;2023-04-10T15:00:45;6.82;;;3.20;;
70605;SDS011;58173;52.500;5.494;2023-04-10T15:03:12;6.88;;;3.08;;
70605;SDS011;58173;52.500;5.494;2023-04-10T15:05:40;7.60;;;2.97;;
70605;SDS011;58173;52.500;5.494;2023-04-10T15:08:07;6.82;;;3.40;;
70605;SDS011;58173;52.500;5.494;2023-04-10T15:10:34;8.05;;;3.45;;
70605;SDS011;58173;52.500;5.494;2023-04-10T15:13:01;6.97;;;3.25;;
70605;SDS011;58173;52.500;5.494;2023-04-10T15:15:28;7.65;;;3.10;;
70605;SDS011;58173;52.500;5.494;2023-04-10T15:17:55;6.20;;;2.90;;
70605;SDS011;58173;52.500;5.494;2023-04-10T15:20:23;6.63;;;3.17;;
70605;SDS011;58173;52.500;5.494;2023-04-10T15:22:50;7.20;;;3.17;;
70605;SDS011;58173;52.500;5.494;2023-04-10T15:25:17;7.13;;;3.75;;
70605;SDS011;58173;52.500;5.494;2023-04-10T15:27:44;7.38;;;3.15;;
70605;SDS011;58173;52.500;5.494;2023-04-10T15:30:11;8.13;;;4.22;;
70605;SDS011;58173;52.500;5.494;2023-04-10T15:32:38;7.85;;;3.45;;
70605;SDS011;58173;52.500;5.494;2023-04-10T15:35:06;7.30;;;3.03;;
70605;SDS011;58173;52.500;5.494;2023-04-10T15:37:33;7.38;;;3.42;;
70605;SDS011;58173;52.500;5.494;2023-04-10T15:40:04;8.00;;;3.50;;
70605;SDS011;58173;52.500;5.494;2023-04-10T15:42:35;8.57;;;3.80;;
70605;SDS011;58173;52.500;5.494;2023-04-10T15:45:02;7.40;;;3.80;;
70605;SDS011;58173;52.500;5.494;2023-04-10T15:47:30;7.85;;;3.08;;
70605;SDS011;58173;52.500;5.494;2023-04-10T15:49:57;9.18;;;4.28;;
70605;SDS011;58173;52.500;5.494;2023-04-10T15:52:24;8.25;;;3.88;;
70605;SDS011;58173;52.500;5.494;2023-04-10T15:54:51;8.18;;;3.80;;
70605;SDS011;58173;52.500;5.494;2023-04-10T15:57:18;7.60;;;3.25;;
70605;SDS011;58173;52.500;5.494;2023-04-10T15:59:46;7.85;;;3.67;;
70605;SDS011;58173;52.500;5.494;2023-04-10T16:02:17;9.38;;;3.95;;
70605;SDS011;58173;52.500;5.494;2023-04-10T16:04:44;8.20;;;3.78;;